createdAt,value
2023-02-23T00:33:41.491Z,28.65
2023-02-23T00:36:15.274Z,28.63
2023-02-23T00:38:53.674Z,27.13
2023-02-23T00:49:05.304Z,35.85
2023-02-23T00:51:37.764Z,31.75
2023-02-23T00:54:14.969Z,31.02
2023-02-23T01:04:24.768Z,35.03
2023-02-23T01:06:56.933Z,29.90
2023-02-23T01:09:31.640Z,31.42
2023-02-23T01:12:07.685Z,26.63
2023-02-23T01:14:40.578Z,30.42
2023-02-23T01:17:12.687Z,29.05
2023-02-23T01:19:44.783Z,33.55
2023-02-23T01:22:16.864Z,33.92
2023-02-23T01:24:51.521Z,30.83
2023-02-23T01:27:24.144Z,31.98
2023-02-23T01:29:56.196Z,31.63
2023-02-23T01:32:28.243Z,30.80
2023-02-23T01:35:00.295Z,33.80
2023-02-23T01:37:35.514Z,38.42
2023-02-23T01:40:15.309Z,33.35
2023-02-23T01:42:47.573Z,30.27
2023-02-23T01:45:27.259Z,34.38
2023-02-23T01:48:03.925Z,31.92
2023-02-23T01:50:45.243Z,32.75
2023-02-23T01:53:21.482Z,30.88
2023-02-23T01:55:58.931Z,32.92
2023-02-23T01:58:32.427Z,32.20
2023-02-23T02:01:05.656Z,30.35
2023-02-23T02:03:45.025Z,33.03
2023-02-23T02:06:19.901Z,30.17
2023-02-23T02:08:55.301Z,30.77
2023-02-23T02:11:31.058Z,31.65
2023-02-23T02:14:12.944Z,36.65
2023-02-23T02:17:02.551Z,36.08
2023-02-23T02:20:13.751Z,32.20
2023-02-23T02:23:11.054Z,30.90
2023-02-23T02:25:55.841Z,30.33
2023-02-23T02:28:46.430Z,33.75
2023-02-23T02:31:58.950Z,31.98
2023-02-23T02:35:04.053Z,29.75
2023-02-23T02:37:56.831Z,40.88
2023-02-23T02:40:37.051Z,33.53
2023-02-23T02:43:16.822Z,35.47
2023-02-23T02:45:54.469Z,33.17
2023-02-23T02:48:35.536Z,32.00
2023-02-23T02:51:18.134Z,31.92
2023-02-23T02:54:06.998Z,32.72
2023-02-23T02:56:43.084Z,30.67
2023-02-23T02:59:36.018Z,33.53
2023-02-23T03:02:34.246Z,30.92
2023-02-23T03:05:32.478Z,29.40
2023-02-23T03:08:34.784Z,36.25
2023-02-23T03:11:30.879Z,41.28
2023-02-23T03:14:33.907Z,29.13
2023-02-23T03:17:31.774Z,34.40
2023-02-23T03:20:30.638Z,32.72
2023-02-23T03:23:29.765Z,29.05
2023-02-23T03:26:27.031Z,30.85
2023-02-23T03:29:24.359Z,33.97
2023-02-23T03:32:22.608Z,31.98
2023-02-23T03:35:20.996Z,29.25
2023-02-23T03:38:16.475Z,34.15
2023-02-23T03:41:10.241Z,34.15
2023-02-23T03:44:12.287Z,34.38
2023-02-23T03:47:07.021Z,34.83
2023-02-23T03:50:00.027Z,28.75
2023-02-23T03:52:54.546Z,35.17
2023-02-23T03:55:49.231Z,31.00
2023-02-23T03:58:44.424Z,34.42
2023-02-23T04:01:36.840Z,30.92
2023-02-23T04:04:31.031Z,37.92
2023-02-23T04:07:23.073Z,30.52
2023-02-23T04:10:14.071Z,33.85
2023-02-23T04:13:13.607Z,31.33
2023-02-23T04:15:50.952Z,33.80
2023-02-23T04:18:26.371Z,34.58
2023-02-23T04:21:01.964Z,32.08
2023-02-23T04:23:35.590Z,31.33
2023-02-23T04:26:07.620Z,34.72
2023-02-23T04:28:39.688Z,34.50
2023-02-23T04:31:11.697Z,34.90
2023-02-23T04:33:43.718Z,39.63
2023-02-23T04:36:18.310Z,34.75
2023-02-23T04:38:50.356Z,32.63
2023-02-23T04:41:22.462Z,36.60
2023-02-23T04:43:54.518Z,35.60
2023-02-23T04:46:26.603Z,38.83
2023-02-23T04:48:58.727Z,36.33
2023-02-23T04:51:34.112Z,35.42
2023-02-23T04:54:06.259Z,38.45
2023-02-23T04:56:39.555Z,34.80
2023-02-23T04:59:11.699Z,39.88
2023-02-23T05:01:43.825Z,43.90
2023-02-23T05:04:15.968Z,35.63
2023-02-23T05:06:50.774Z,45.75
2023-02-23T05:09:22.858Z,41.28
2023-02-23T05:11:55.608Z,39.80
2023-02-23T05:14:27.908Z,43.38
2023-02-23T05:16:59.964Z,41.08
2023-02-23T05:19:32.044Z,42.67
2023-02-23T05:22:06.649Z,41.88
2023-02-23T05:24:39.011Z,44.00
2023-02-23T05:27:13.976Z,40.53
2023-02-23T05:29:46.058Z,83.88
2023-02-23T05:32:18.224Z,97.03
2023-02-23T05:34:50.348Z,60.90
2023-02-23T05:37:25.055Z,48.25
2023-02-23T05:39:57.086Z,44.20
2023-02-23T05:42:29.149Z,45.63
2023-02-23T05:45:01.218Z,50.03
2023-02-23T05:47:35.590Z,50.63
2023-02-23T05:50:12.937Z,48.00
2023-02-23T05:52:47.710Z,46.38
2023-02-23T05:55:21.686Z,41.75
2023-02-23T05:57:53.898Z,45.22
2023-02-23T06:00:26.148Z,53.90
2023-02-23T06:02:58.369Z,46.55
2023-02-23T06:05:30.510Z,45.90
2023-02-23T06:08:06.048Z,43.60
2023-02-23T06:10:38.074Z,43.63
2023-02-23T06:13:10.543Z,40.92
2023-02-23T06:15:43.488Z,37.80
2023-02-23T06:18:15.846Z,35.47
2023-02-23T06:20:50.857Z,37.90
2023-02-23T06:23:25.473Z,36.67
2023-02-23T06:25:58.698Z,37.20
2023-02-23T06:28:30.812Z,39.13
2023-02-23T06:31:03.057Z,36.95
2023-02-23T06:33:35.364Z,35.50
2023-02-23T06:36:08.230Z,36.28
2023-02-23T06:38:42.832Z,36.58
2023-02-23T06:41:16.474Z,38.58
2023-02-23T06:43:48.633Z,40.75
2023-02-23T06:46:20.841Z,35.38
2023-02-23T06:48:55.848Z,36.13
2023-02-23T06:51:28.087Z,35.22
2023-02-23T06:54:02.698Z,38.33
2023-02-23T06:56:34.714Z,42.10
2023-02-23T06:59:07.395Z,35.65
2023-02-23T07:01:39.489Z,39.08
2023-02-23T07:04:11.871Z,36.88
2023-02-23T07:06:44.180Z,40.85
2023-02-23T07:09:18.936Z,35.97
2023-02-23T07:11:51.890Z,40.30
2023-02-23T07:14:26.955Z,39.42
2023-02-23T07:16:59.614Z,37.38
2023-02-23T07:19:32.055Z,34.92
2023-02-23T07:22:05.113Z,37.00
2023-02-23T07:24:39.892Z,39.40
2023-02-23T07:27:11.904Z,32.92
2023-02-23T07:29:43.927Z,36.25
2023-02-23T07:32:16.094Z,35.10
2023-02-23T07:34:48.189Z,38.85
2023-02-23T07:37:20.375Z,40.88
2023-02-23T07:39:55.042Z,38.40
2023-02-23T07:42:27.218Z,40.25
2023-02-23T07:45:01.895Z,39.67
2023-02-23T07:47:35.042Z,39.38
2023-02-23T07:50:10.041Z,43.58
2023-02-23T07:52:43.311Z,39.42
2023-02-23T07:55:18.571Z,42.85
2023-02-23T07:57:50.713Z,43.30
2023-02-23T08:00:25.132Z,44.17
2023-02-23T08:02:57.218Z,36.90
2023-02-23T08:05:32.853Z,36.65
2023-02-23T08:08:05.235Z,42.58
2023-02-23T08:10:40.136Z,39.90
2023-02-23T08:13:12.234Z,42.05
2023-02-23T08:15:44.343Z,39.03
2023-02-23T08:18:19.047Z,38.83
2023-02-23T08:20:51.196Z,38.22
2023-02-23T08:23:23.295Z,42.20
2023-02-23T08:25:59.758Z,39.17
2023-02-23T08:28:31.954Z,39.08
2023-02-23T08:31:08.728Z,33.65
2023-02-23T08:33:40.913Z,32.95
2023-02-23T08:36:12.997Z,33.15
2023-02-23T08:38:45.095Z,27.98
2023-02-23T08:41:20.249Z,29.60
2023-02-23T08:43:52.500Z,29.27
2023-02-23T08:46:24.545Z,27.55
2023-02-23T08:48:57.030Z,22.48
2023-02-23T08:51:31.891Z,22.13
2023-02-23T08:54:04.201Z,22.65
2023-02-23T08:56:39.022Z,19.83
2023-02-23T08:59:12.897Z,22.98
2023-02-23T09:01:44.987Z,22.10
2023-02-23T09:04:18.298Z,22.90
2023-02-23T09:06:50.639Z,15.55
2023-02-23T09:09:22.691Z,17.10
2023-02-23T09:11:59.096Z,19.13
2023-02-23T09:14:32.378Z,14.63
2023-02-23T09:17:04.528Z,16.77
2023-02-23T09:19:36.651Z,12.65
2023-02-23T09:22:08.711Z,13.55
2023-02-23T09:24:40.729Z,14.43
2023-02-23T09:27:15.588Z,13.02
2023-02-23T09:29:47.812Z,15.77
2023-02-23T09:32:19.947Z,12.45
2023-02-23T09:34:52.652Z,14.60
2023-02-23T09:37:25.289Z,14.13
2023-02-23T09:39:58.152Z,10.73
2023-02-23T09:42:47.701Z,11.95
2023-02-23T09:45:32.712Z,12.40
2023-02-23T09:48:13.075Z,12.10
2023-02-23T09:50:48.867Z,13.27
2023-02-23T09:53:35.790Z,12.75
2023-02-23T09:56:18.784Z,13.00
2023-02-23T09:58:55.489Z,12.25
2023-02-23T10:02:00.324Z,11.13
2023-02-23T10:04:40.865Z,11.43
2023-02-23T10:07:19.035Z,13.90
2023-02-23T10:10:15.917Z,11.45
2023-02-23T10:12:55.177Z,13.25
2023-02-23T10:15:40.828Z,14.95
2023-02-23T10:18:23.274Z,12.10
2023-02-23T10:21:05.654Z,12.75
2023-02-23T10:23:40.779Z,11.77
2023-02-23T12:23:32.698Z,10.27
2023-02-23T12:26:11.665Z,7.75
2023-02-23T12:28:51.617Z,6.40
2023-02-23T12:31:28.506Z,6.13
2023-02-23T12:41:59.456Z,6.50
2023-02-23T12:44:40.196Z,8.13
2023-02-23T12:47:21.863Z,7.45
2023-02-23T12:50:07.615Z,9.25
2023-02-23T12:52:48.140Z,7.38
2023-02-23T12:55:30.968Z,8.27
2023-02-23T12:58:07.965Z,7.20
2023-02-23T13:00:50.466Z,9.07
2023-02-23T13:03:40.818Z,10.75
2023-02-23T13:06:22.991Z,7.07
2023-02-23T13:09:11.351Z,8.35
2023-02-23T13:19:34.076Z,6.28
2023-02-23T13:35:17.335Z,7.57
2023-02-23T13:37:54.051Z,5.68
2023-02-23T13:40:35.782Z,5.43
2023-02-23T13:43:17.756Z,6.78
2023-02-23T13:46:03.497Z,6.35
2023-02-23T13:48:56.192Z,5.78
2023-02-23T13:51:37.600Z,6.50
2023-02-23T13:54:24.806Z,4.85
2023-02-23T13:57:01.950Z,9.00
2023-02-23T13:59:42.308Z,4.43
2023-02-23T14:02:34.712Z,5.93
2023-02-23T14:05:17.150Z,6.00
2023-02-23T14:07:53.740Z,4.93
2023-02-23T14:10:29.767Z,5.55
2023-02-23T14:13:27.594Z,7.13
2023-02-23T14:16:16.040Z,4.72
2023-02-23T14:18:58.010Z,7.05
2023-02-23T14:21:34.804Z,5.25
2023-02-23T14:24:17.810Z,6.47
2023-02-23T14:27:40.311Z,5.70
2023-02-23T14:30:22.801Z,6.03
2023-02-23T14:33:10.133Z,6.93
2023-02-23T14:35:53.023Z,6.88
2023-02-23T14:38:47.381Z,10.27
2023-02-23T14:41:22.352Z,6.90
2023-02-23T14:44:00.232Z,4.68
2023-02-23T14:46:37.350Z,8.73
2023-02-23T14:49:17.702Z,7.20
2023-02-23T14:51:52.600Z,5.97
2023-02-23T14:54:29.912Z,7.20
2023-02-23T14:57:04.828Z,6.00
2023-02-23T14:59:42.824Z,8.13
2023-02-23T15:02:24.325Z,6.03
2023-02-23T15:04:56.811Z,6.30
2023-02-23T15:07:32.962Z,6.22
2023-02-23T15:10:10.592Z,4.65
2023-02-23T15:12:42.912Z,6.95
2023-02-23T15:15:18.522Z,6.38
2023-02-23T15:17:56.307Z,7.40
2023-02-23T15:23:09.150Z,13.65
2023-02-23T15:25:41.685Z,5.20
2023-02-23T15:28:32.653Z,7.38
2023-02-23T15:31:12.883Z,5.65
2023-02-23T15:33:50.892Z,5.93
2023-02-23T15:36:28.725Z,5.65
2023-02-23T15:39:03.950Z,6.82
2023-02-23T15:41:38.428Z,5.38
2023-02-23T15:44:15.019Z,6.43
2023-02-23T15:46:52.708Z,9.07
2023-02-23T15:49:31.851Z,6.28
2023-02-23T15:52:07.280Z,5.95
2023-02-23T15:54:50.738Z,5.88
2023-02-23T15:57:30.499Z,10.00
2023-02-23T16:00:16.554Z,9.05
2023-02-23T16:02:49.004Z,6.40
2023-02-23T16:05:25.891Z,5.63
2023-02-23T16:08:06.345Z,7.68
2023-02-23T16:10:47.078Z,6.90
2023-02-23T16:13:21.767Z,9.85
2023-02-23T16:15:55.137Z,7.40
2023-02-23T16:18:37.213Z,8.32
2023-02-23T16:21:17.085Z,8.55
2023-02-23T16:23:52.205Z,9.68
2023-02-23T16:26:27.248Z,10.82
2023-02-23T16:29:02.148Z,9.68
2023-02-23T16:31:43.532Z,10.48
2023-02-23T16:34:23.983Z,9.43
2023-02-23T16:37:00.808Z,7.40
2023-02-23T16:39:34.358Z,7.20
2023-02-23T16:42:06.402Z,8.35
2023-02-23T16:44:43.705Z,7.43
2023-02-23T16:50:20.193Z,7.13
2023-02-23T16:52:55.669Z,11.05
2023-02-23T16:55:29.220Z,10.50
2023-02-23T16:58:03.990Z,8.77
2023-02-23T17:00:36.365Z,8.07
2023-02-23T17:03:16.451Z,9.70
2023-02-23T17:05:48.861Z,8.80
2023-02-23T17:08:24.530Z,12.38
2023-02-23T17:10:57.453Z,8.20
2023-02-23T17:13:33.357Z,8.68
2023-02-23T17:16:07.822Z,11.27
2023-02-23T17:18:42.804Z,9.32
2023-02-23T17:21:16.283Z,11.93
2023-02-23T17:24:02.982Z,9.98
2023-02-23T17:29:11.279Z,11.07
2023-02-23T17:39:22.106Z,11.73
2023-02-23T17:41:55.379Z,11.07
2023-02-23T17:44:29.458Z,11.02
2023-02-23T17:47:01.570Z,10.60
2023-02-23T17:49:33.604Z,10.60
2023-02-23T17:52:05.925Z,10.65
2023-02-23T17:54:40.577Z,10.13
2023-02-23T17:57:13.348Z,11.70
2023-02-23T17:59:45.419Z,13.73
2023-02-23T18:02:20.871Z,12.38
2023-02-23T18:04:53.190Z,13.95
2023-02-23T18:07:25.315Z,14.15
2023-02-23T18:09:59.947Z,13.82
2023-02-23T18:12:32.583Z,14.35
2023-02-23T18:15:05.653Z,14.68
2023-02-23T18:17:37.869Z,20.00
2023-02-23T18:20:15.051Z,20.00
2023-02-23T18:22:47.394Z,16.30
2023-02-23T18:25:25.591Z,16.73
2023-02-23T18:27:59.234Z,14.45
2023-02-23T18:30:31.358Z,14.80
2023-02-23T18:33:04.490Z,20.33
2023-02-23T18:35:39.047Z,15.30
2023-02-23T18:38:14.160Z,16.02
2023-02-23T18:40:49.139Z,15.43
2023-02-23T18:43:21.157Z,19.30
2023-02-23T18:45:53.184Z,14.15
2023-02-23T18:48:25.339Z,18.00
2023-02-23T18:50:59.226Z,15.85
2023-02-23T18:53:31.606Z,13.88
2023-02-23T18:56:12.534Z,15.02
2023-02-23T18:58:45.170Z,18.33
2023-02-23T19:01:20.806Z,13.65
2023-02-23T19:03:54.029Z,13.68
2023-02-23T19:06:26.959Z,12.65
2023-02-23T19:09:00.171Z,12.68
2023-02-23T19:11:36.026Z,13.05
2023-02-23T19:14:10.617Z,12.05
2023-02-23T19:16:43.579Z,11.90
2023-02-23T19:19:16.205Z,10.15
2023-02-23T19:21:48.223Z,11.82
2023-02-23T19:24:20.727Z,12.60
2023-02-23T19:26:55.329Z,12.43
2023-02-23T19:29:27.416Z,12.52
2023-02-23T19:31:59.576Z,10.05
2023-02-23T19:34:31.698Z,10.18
2023-02-23T19:37:03.865Z,9.70
2023-02-23T19:39:36.295Z,10.55
2023-02-23T19:42:10.949Z,11.35
2023-02-23T19:44:43.235Z,9.57
2023-02-23T19:47:15.285Z,11.65
2023-02-23T19:49:47.360Z,11.50
2023-02-23T19:52:19.584Z,10.50
2023-02-23T19:54:54.130Z,10.18
2023-02-23T19:57:28.928Z,11.68
2023-02-23T20:00:00.955Z,11.27
2023-02-23T20:02:33.130Z,10.98
2023-02-23T20:05:05.679Z,11.27
2023-02-23T20:07:37.809Z,12.60
2023-02-23T20:10:16.132Z,11.35
2023-02-23T20:12:51.049Z,11.80
2023-02-23T20:15:23.047Z,10.40
2023-02-23T20:17:55.061Z,12.45
2023-02-23T20:20:29.437Z,13.13
2023-02-23T20:23:07.942Z,12.48
2023-02-23T20:25:44.395Z,11.63
2023-02-23T20:28:19.029Z,11.82
2023-02-23T20:30:51.378Z,10.90
2023-02-23T20:33:23.424Z,13.73
2023-02-23T20:35:55.565Z,11.70
2023-02-23T20:38:27.618Z,11.50
2023-02-23T20:41:03.153Z,11.32
2023-02-23T20:43:39.234Z,11.68
2023-02-23T20:46:20.191Z,11.23
2023-02-23T20:48:52.294Z,11.82
2023-02-23T20:51:27.566Z,12.82
2023-02-23T20:54:19.987Z,11.85
2023-02-23T20:57:07.730Z,10.73
2023-02-23T20:59:48.951Z,10.77
2023-02-23T21:02:21.265Z,15.18
2023-02-23T21:04:53.511Z,8.73
2023-02-23T21:07:25.564Z,11.52
2023-02-23T21:10:00.521Z,9.05
2023-02-23T21:12:32.545Z,11.15
2023-02-23T21:15:09.380Z,10.35
2023-02-23T21:17:45.034Z,10.45
2023-02-23T21:20:20.029Z,11.57
2023-02-23T21:22:53.224Z,12.88
2023-02-23T21:25:26.348Z,11.98
2023-02-23T21:28:02.111Z,13.80
2023-02-23T21:30:39.471Z,14.18
2023-02-23T21:33:11.535Z,14.82
2023-02-23T21:35:46.710Z,15.32
2023-02-23T21:38:19.320Z,16.25
2023-02-23T21:40:51.592Z,14.32
2023-02-23T21:43:28.059Z,14.05
2023-02-23T21:46:10.054Z,13.55
2023-02-23T21:48:43.088Z,13.57
2023-02-23T21:51:16.343Z,13.43
2023-02-23T21:53:48.325Z,15.10
2023-02-23T21:56:24.550Z,15.30
2023-02-23T21:58:56.744Z,17.60
2023-02-23T22:01:36.526Z,15.80
2023-02-23T22:04:11.661Z,13.93
2023-02-23T22:06:44.666Z,14.80
2023-02-23T22:09:16.751Z,15.68
2023-02-23T22:11:51.742Z,15.75
2023-02-23T22:14:24.193Z,15.85
2023-02-23T22:16:59.175Z,16.92
2023-02-23T22:19:31.471Z,15.93
2023-02-23T22:22:03.527Z,14.32
2023-02-23T22:24:35.530Z,18.27
2023-02-23T22:27:07.845Z,16.10
2023-02-23T22:29:39.837Z,16.40
2023-02-23T22:32:14.697Z,17.23
2023-02-23T22:34:46.868Z,19.23
2023-02-23T22:37:22.004Z,15.65
2023-02-23T22:39:54.213Z,13.30
2023-02-23T22:42:29.682Z,17.98
2023-02-23T22:45:01.814Z,19.02
2023-02-23T22:47:36.704Z,16.05
2023-02-23T22:50:12.175Z,15.25
2023-02-23T22:52:44.361Z,18.80
2023-02-23T22:55:16.652Z,14.20
2023-02-23T22:57:48.861Z,15.00
2023-02-23T23:00:21.638Z,13.35
2023-02-23T23:02:56.216Z,14.50
2023-02-23T23:05:28.300Z,11.98
2023-02-23T23:08:00.315Z,12.35
2023-02-23T23:10:32.373Z,13.27
2023-02-23T23:13:05.381Z,11.68
2023-02-23T23:15:40.703Z,12.13
2023-02-23T23:18:20.830Z,11.20
2023-02-23T23:20:55.456Z,9.55
2023-02-23T23:23:27.450Z,12.13
2023-02-23T23:26:00.035Z,13.40
2023-02-23T23:28:40.126Z,12.70
2023-02-23T23:31:12.167Z,16.02
2023-02-23T23:33:49.613Z,11.43
2023-02-23T23:36:24.126Z,13.63
2023-02-23T23:38:56.858Z,10.82
2023-02-23T23:41:30.790Z,13.40
2023-02-23T23:44:05.366Z,11.80
2023-02-23T23:46:42.688Z,10.85
2023-02-23T23:49:19.480Z,16.27
2023-02-23T23:51:56.278Z,15.05
2023-02-23T23:54:32.972Z,12.32
2023-02-23T23:57:06.884Z,13.77
2023-02-23T23:59:46.009Z,15.23
